sensor_id;sensor_type;location;lat;lon;timestamp;P1;durP1;ratioP1;P2;durP2;ratioP2
33714;SDS011;20043;50.998;4.754;2023-04-25T00:01:46;19.23;;;7.53;;
33714;SDS011;20043;50.998;4.754;2023-04-25T00:04:12;22.08;;;7.35;;
33714;SDS011;20043;50.998;4.754;2023-04-25T00:06:38;20.48;;;7.82;;
33714;SDS011;20043;50.998;4.754;2023-04-25T00:09:04;18.27;;;7.30;;
33714;SDS011;20043;50.998;4.754;2023-04-25T00:11:32;20.20;;;7.43;;
33714;SDS011;20043;50.998;4.754;2023-04-25T00:13:58;27.20;;;7.85;;
33714;SDS011;20043;50.998;4.754;2023-04-25T00:16:26;22.08;;;8.27;;
33714;SDS011;20043;50.998;4.754;2023-04-25T00:18:53;18.73;;;7.30;;
33714;SDS011;20043;50.998;4.754;2023-04-25T00:21:20;25.05;;;7.68;;
33714;SDS011;20043;50.998;4.754;2023-04-25T00:23:46;21.83;;;7.60;;
33714;SDS011;20043;50.998;4.754;2023-04-25T00:26:12;21.42;;;7.72;;
33714;SDS011;20043;50.998;4.754;2023-04-25T00:28:38;24.58;;;7.95;;
33714;SDS011;20043;50.998;4.754;2023-04-25T00:31:05;24.52;;;6.82;;
33714;SDS011;20043;50.998;4.754;2023-04-25T00:33:30;23.95;;;6.72;;
33714;SDS011;20043;50.998;4.754;2023-04-25T00:35:56;24.27;;;6.40;;
33714;SDS011;20043;50.998;4.754;2023-04-25T00:38:22;22.83;;;7.20;;
33714;SDS011;20043;50.998;4.754;2023-04-25T00:40:47;30.17;;;6.25;;
33714;SDS011;20043;50.998;4.754;2023-04-25T00:43:13;20.23;;;6.72;;
33714;SDS011;20043;50.998;4.754;2023-04-25T00:45:39;18.85;;;6.95;;
33714;SDS011;20043;50.998;4.754;2023-04-25T00:48:05;18.13;;;6.65;;
33714;SDS011;20043;50.998;4.754;2023-04-25T00:50:32;32.75;;;6.95;;
33714;SDS011;20043;50.998;4.754;2023-04-25T00:52:59;23.58;;;7.07;;
33714;SDS011;20043;50.998;4.754;2023-04-25T00:55:26;23.45;;;7.35;;
33714;SDS011;20043;50.998;4.754;2023-04-25T00:57:52;22.80;;;6.90;;
33714;SDS011;20043;50.998;4.754;2023-04-25T01:00:24;23.50;;;6.90;;
33714;SDS011;20043;50.998;4.754;2023-04-25T01:02:50;25.38;;;7.90;;
33714;SDS011;20043;50.998;4.754;2023-04-25T01:05:16;19.55;;;6.43;;
33714;SDS011;20043;50.998;4.754;2023-04-25T01:07:43;19.30;;;6.88;;
33714;SDS011;20043;50.998;4.754;2023-04-25T01:10:10;24.33;;;6.78;;
33714;SDS011;20043;50.998;4.754;2023-04-25T01:12:36;28.30;;;7.10;;
33714;SDS011;20043;50.998;4.754;2023-04-25T01:15:02;23.67;;;6.28;;
33714;SDS011;20043;50.998;4.754;2023-04-25T01:17:28;17.50;;;6.50;;
33714;SDS011;20043;50.998;4.754;2023-04-25T01:19:54;22.48;;;7.10;;
33714;SDS011;20043;50.998;4.754;2023-04-25T01:22:20;26.45;;;7.28;;
33714;SDS011;20043;50.998;4.754;2023-04-25T01:24:46;18.88;;;6.65;;
33714;SDS011;20043;50.998;4.754;2023-04-25T01:27:12;21.23;;;6.68;;
33714;SDS011;20043;50.998;4.754;2023-04-25T01:29:38;24.85;;;7.60;;
33714;SDS011;20043;50.998;4.754;2023-04-25T01:32:04;31.33;;;7.50;;
33714;SDS011;20043;50.998;4.754;2023-04-25T01:34:30;23.75;;;7.13;;
33714;SDS011;20043;50.998;4.754;2023-04-25T01:36:56;20.92;;;7.13;;
33714;SDS011;20043;50.998;4.754;2023-04-25T01:39:21;27.00;;;6.75;;
33714;SDS011;20043;50.998;4.754;2023-04-25T01:41:47;21.42;;;6.95;;
33714;SDS011;20043;50.998;4.754;2023-04-25T01:44:13;21.45;;;6.50;;
33714;SDS011;20043;50.998;4.754;2023-04-25T01:46:39;26.77;;;6.50;;
33714;SDS011;20043;50.998;4.754;2023-04-25T01:49:05;27.40;;;7.00;;
33714;SDS011;20043;50.998;4.754;2023-04-25T01:51:31;24.10;;;6.68;;
33714;SDS011;20043;50.998;4.754;2023-04-25T01:53:57;28.67;;;6.88;;
33714;SDS011;20043;50.998;4.754;2023-04-25T01:56:23;21.45;;;7.07;;
33714;SDS011;20043;50.998;4.754;2023-04-25T01:58:49;26.08;;;6.68;;
33714;SDS011;20043;50.998;4.754;2023-04-25T02:01:16;27.55;;;7.18;;
33714;SDS011;20043;50.998;4.754;2023-04-25T02:03:42;26.95;;;6.93;;
33714;SDS011;20043;50.998;4.754;2023-04-25T02:06:08;34.00;;;6.43;;
33714;SDS011;20043;50.998;4.754;2023-04-25T02:08:34;28.55;;;6.70;;
33714;SDS011;20043;50.998;4.754;2023-04-25T02:11:00;26.20;;;6.38;;
33714;SDS011;20043;50.998;4.754;2023-04-25T02:13:25;29.30;;;5.97;;
33714;SDS011;20043;50.998;4.754;2023-04-25T02:15:51;24.42;;;6.82;;
33714;SDS011;20043;50.998;4.754;2023-04-25T02:18:16;24.23;;;6.38;;
33714;SDS011;20043;50.998;4.754;2023-04-25T02:20:42;26.85;;;6.15;;
33714;SDS011;20043;50.998;4.754;2023-04-25T02:23:09;36.13;;;6.85;;
33714;SDS011;20043;50.998;4.754;2023-04-25T02:25:34;29.00;;;6.82;;
33714;SDS011;20043;50.998;4.754;2023-04-25T02:28:00;26.75;;;6.13;;
33714;SDS011;20043;50.998;4.754;2023-04-25T02:30:26;26.40;;;6.53;;
33714;SDS011;20043;50.998;4.754;2023-04-25T02:32:51;30.73;;;6.20;;
33714;SDS011;20043;50.998;4.754;2023-04-25T02:35:17;28.48;;;7.10;;
33714;SDS011;20043;50.998;4.754;2023-04-25T02:37:43;23.88;;;5.63;;
33714;SDS011;20043;50.998;4.754;2023-04-25T02:40:09;33.30;;;7.20;;
33714;SDS011;20043;50.998;4.754;2023-04-25T02:42:35;24.15;;;5.82;;
33714;SDS011;20043;50.998;4.754;2023-04-25T02:45:01;37.58;;;5.65;;
33714;SDS011;20043;50.998;4.754;2023-04-25T02:47:27;25.80;;;6.25;;
33714;SDS011;20043;50.998;4.754;2023-04-25T02:49:53;32.25;;;6.88;;
33714;SDS011;20043;50.998;4.754;2023-04-25T02:52:18;22.48;;;5.55;;
33714;SDS011;20043;50.998;4.754;2023-04-25T02:54:44;22.88;;;6.07;;
33714;SDS011;20043;50.998;4.754;2023-04-25T02:57:10;23.20;;;5.57;;
33714;SDS011;20043;50.998;4.754;2023-04-25T02:59:36;22.13;;;5.93;;
33714;SDS011;20043;50.998;4.754;2023-04-25T03:02:01;29.55;;;5.68;;
33714;SDS011;20043;50.998;4.754;2023-04-25T03:04:27;28.98;;;5.93;;
33714;SDS011;20043;50.998;4.754;2023-04-25T03:06:53;26.67;;;5.60;;
33714;SDS011;20043;50.998;4.754;2023-04-25T03:09:18;31.63;;;6.75;;
33714;SDS011;20043;50.998;4.754;2023-04-25T03:11:44;24.08;;;5.45;;
33714;SDS011;20043;50.998;4.754;2023-04-25T03:14:10;21.40;;;5.82;;
33714;SDS011;20043;50.998;4.754;2023-04-25T03:16:36;28.70;;;6.40;;
33714;SDS011;20043;50.998;4.754;2023-04-25T03:19:02;29.90;;;5.85;;
33714;SDS011;20043;50.998;4.754;2023-04-25T03:21:28;29.48;;;6.45;;
33714;SDS011;20043;50.998;4.754;2023-04-25T03:23:56;35.55;;;6.60;;
33714;SDS011;20043;50.998;4.754;2023-04-25T03:26:22;38.50;;;7.28;;
33714;SDS011;20043;50.998;4.754;2023-04-25T03:28:48;28.08;;;5.93;;
33714;SDS011;20043;50.998;4.754;2023-04-25T03:31:14;28.15;;;6.55;;
33714;SDS011;20043;50.998;4.754;2023-04-25T03:33:39;27.50;;;6.78;;
33714;SDS011;20043;50.998;4.754;2023-04-25T03:36:05;33.22;;;6.97;;
33714;SDS011;20043;50.998;4.754;2023-04-25T03:38:31;27.83;;;6.45;;
33714;SDS011;20043;50.998;4.754;2023-04-25T03:40:57;25.00;;;5.85;;
33714;SDS011;20043;50.998;4.754;2023-04-25T03:43:22;30.92;;;6.28;;
33714;SDS011;20043;50.998;4.754;2023-04-25T03:45:48;24.95;;;5.93;;
33714;SDS011;20043;50.998;4.754;2023-04-25T03:48:14;27.55;;;6.00;;
33714;SDS011;20043;50.998;4.754;2023-04-25T03:50:40;28.30;;;5.78;;
33714;SDS011;20043;50.998;4.754;2023-04-25T03:53:05;28.35;;;6.03;;
33714;SDS011;20043;50.998;4.754;2023-04-25T03:55:31;23.33;;;5.93;;
33714;SDS011;20043;50.998;4.754;2023-04-25T03:57:57;30.38;;;5.88;;
33714;SDS011;20043;50.998;4.754;2023-04-25T04:00:23;28.10;;;6.72;;
33714;SDS011;20043;50.998;4.754;2023-04-25T04:02:50;29.75;;;5.97;;
33714;SDS011;20043;50.998;4.754;2023-04-25T04:05:15;33.03;;;6.85;;
33714;SDS011;20043;50.998;4.754;2023-04-25T04:07:41;26.25;;;6.07;;
33714;SDS011;20043;50.998;4.754;2023-04-25T04:10:08;31.15;;;6.35;;
33714;SDS011;20043;50.998;4.754;2023-04-25T04:12:37;26.35;;;5.63;;
33714;SDS011;20043;50.998;4.754;2023-04-25T04:15:03;24.88;;;6.28;;
33714;SDS011;20043;50.998;4.754;2023-04-25T04:17:29;35.35;;;6.85;;
33714;SDS011;20043;50.998;4.754;2023-04-25T04:19:55;26.05;;;5.20;;
33714;SDS011;20043;50.998;4.754;2023-04-25T04:22:21;22.48;;;5.47;;
33714;SDS011;20043;50.998;4.754;2023-04-25T04:24:47;20.42;;;5.55;;
33714;SDS011;20043;50.998;4.754;2023-04-25T04:27:14;26.60;;;6.25;;
33714;SDS011;20043;50.998;4.754;2023-04-25T04:29:42;26.08;;;6.15;;
33714;SDS011;20043;50.998;4.754;2023-04-25T04:32:08;26.98;;;6.80;;
33714;SDS011;20043;50.998;4.754;2023-04-25T04:34:34;36.83;;;7.53;;
33714;SDS011;20043;50.998;4.754;2023-04-25T04:37:00;23.85;;;6.82;;
33714;SDS011;20043;50.998;4.754;2023-04-25T04:39:25;30.08;;;7.10;;
33714;SDS011;20043;50.998;4.754;2023-04-25T04:41:51;33.25;;;7.32;;
33714;SDS011;20043;50.998;4.754;2023-04-25T04:44:17;25.73;;;6.95;;
33714;SDS011;20043;50.998;4.754;2023-04-25T04:46:43;28.13;;;6.55;;
33714;SDS011;20043;50.998;4.754;2023-04-25T04:49:09;21.48;;;6.15;;
33714;SDS011;20043;50.998;4.754;2023-04-25T04:51:36;24.20;;;6.05;;
33714;SDS011;20043;50.998;4.754;2023-04-25T04:54:02;32.10;;;7.20;;
33714;SDS011;20043;50.998;4.754;2023-04-25T04:56:29;24.83;;;6.10;;
33714;SDS011;20043;50.998;4.754;2023-04-25T04:58:56;28.95;;;6.60;;
33714;SDS011;20043;50.998;4.754;2023-04-25T05:01:22;26.60;;;6.30;;
33714;SDS011;20043;50.998;4.754;2023-04-25T05:03:48;32.83;;;6.40;;
33714;SDS011;20043;50.998;4.754;2023-04-25T05:06:14;30.15;;;6.55;;
33714;SDS011;20043;50.998;4.754;2023-04-25T05:08:41;27.23;;;7.15;;
33714;SDS011;20043;50.998;4.754;2023-04-25T05:11:07;28.52;;;6.85;;
33714;SDS011;20043;50.998;4.754;2023-04-25T05:13:32;29.13;;;7.13;;
33714;SDS011;20043;50.998;4.754;2023-04-25T05:15:58;30.15;;;6.72;;
33714;SDS011;20043;50.998;4.754;2023-04-25T05:18:24;25.23;;;6.72;;
33714;SDS011;20043;50.998;4.754;2023-04-25T05:20:50;24.38;;;6.97;;
33714;SDS011;20043;50.998;4.754;2023-04-25T05:23:15;25.02;;;6.38;;
33714;SDS011;20043;50.998;4.754;2023-04-25T05:25:41;24.02;;;5.82;;
33714;SDS011;20043;50.998;4.754;2023-04-25T05:28:07;26.08;;;6.35;;
33714;SDS011;20043;50.998;4.754;2023-04-25T05:30:33;25.75;;;5.32;;
33714;SDS011;20043;50.998;4.754;2023-04-25T05:32:59;27.45;;;6.10;;
33714;SDS011;20043;50.998;4.754;2023-04-25T05:35:25;30.55;;;6.63;;
33714;SDS011;20043;50.998;4.754;2023-04-25T05:37:51;24.98;;;6.13;;
33714;SDS011;20043;50.998;4.754;2023-04-25T05:40:16;28.02;;;6.88;;
33714;SDS011;20043;50.998;4.754;2023-04-25T05:42:42;27.48;;;5.63;;
33714;SDS011;20043;50.998;4.754;2023-04-25T05:45:08;19.17;;;6.30;;
33714;SDS011;20043;50.998;4.754;2023-04-25T05:47:34;25.73;;;6.20;;
33714;SDS011;20043;50.998;4.754;2023-04-25T05:50:00;27.48;;;6.15;;
33714;SDS011;20043;50.998;4.754;2023-04-25T05:52:25;24.73;;;6.38;;
33714;SDS011;20043;50.998;4.754;2023-04-25T05:54:51;20.98;;;5.55;;
33714;SDS011;20043;50.998;4.754;2023-04-25T05:57:24;25.42;;;6.50;;
33714;SDS011;20043;50.998;4.754;2023-04-25T05:59:52;24.30;;;6.57;;
33714;SDS011;20043;50.998;4.754;2023-04-25T06:02:18;24.45;;;6.38;;
33714;SDS011;20043;50.998;4.754;2023-04-25T06:04:45;28.65;;;5.97;;
33714;SDS011;20043;50.998;4.754;2023-04-25T06:07:11;32.85;;;6.90;;
33714;SDS011;20043;50.998;4.754;2023-04-25T06:09:37;27.30;;;6.20;;
33714;SDS011;20043;50.998;4.754;2023-04-25T06:12:04;29.08;;;6.75;;
33714;SDS011;20043;50.998;4.754;2023-04-25T06:14:30;25.77;;;6.10;;
33714;SDS011;20043;50.998;4.754;2023-04-25T06:16:56;26.55;;;5.93;;
33714;SDS011;20043;50.998;4.754;2023-04-25T06:19:22;25.35;;;5.78;;
33714;SDS011;20043;50.998;4.754;2023-04-25T06:21:47;32.78;;;5.82;;
33714;SDS011;20043;50.998;4.754;2023-04-25T06:24:13;27.77;;;5.97;;
33714;SDS011;20043;50.998;4.754;2023-04-25T06:26:39;28.00;;;5.38;;
33714;SDS011;20043;50.998;4.754;2023-04-25T06:29:04;23.00;;;5.18;;
33714;SDS011;20043;50.998;4.754;2023-04-25T06:31:30;27.38;;;5.50;;
33714;SDS011;20043;50.998;4.754;2023-04-25T06:33:57;23.85;;;5.85;;
33714;SDS011;20043;50.998;4.754;2023-04-25T06:36:23;28.23;;;5.50;;
33714;SDS011;20043;50.998;4.754;2023-04-25T06:38:51;26.40;;;5.45;;
33714;SDS011;20043;50.998;4.754;2023-04-25T06:41:17;28.35;;;5.53;;
33714;SDS011;20043;50.998;4.754;2023-04-25T06:43:43;23.42;;;5.68;;
33714;SDS011;20043;50.998;4.754;2023-04-25T06:46:09;24.75;;;5.43;;
33714;SDS011;20043;50.998;4.754;2023-04-25T06:48:35;25.02;;;4.95;;
33714;SDS011;20043;50.998;4.754;2023-04-25T06:51:00;19.88;;;5.50;;
33714;SDS011;20043;50.998;4.754;2023-04-25T06:53:26;20.08;;;4.60;;
33714;SDS011;20043;50.998;4.754;2023-04-25T06:55:58;22.58;;;5.03;;
33714;SDS011;20043;50.998;4.754;2023-04-25T06:58:24;17.98;;;4.93;;
33714;SDS011;20043;50.998;4.754;2023-04-25T07:00:51;23.90;;;4.88;;
33714;SDS011;20043;50.998;4.754;2023-04-25T07:03:16;24.35;;;4.60;;
33714;SDS011;20043;50.998;4.754;2023-04-25T07:05:42;26.70;;;5.10;;
33714;SDS011;20043;50.998;4.754;2023-04-25T07:08:08;21.67;;;4.15;;
33714;SDS011;20043;50.998;4.754;2023-04-25T07:10:33;22.40;;;4.15;;
33714;SDS011;20043;50.998;4.754;2023-04-25T07:12:59;17.98;;;4.47;;
33714;SDS011;20043;50.998;4.754;2023-04-25T07:15:25;21.60;;;4.68;;
33714;SDS011;20043;50.998;4.754;2023-04-25T07:17:50;19.08;;;4.65;;
33714;SDS011;20043;50.998;4.754;2023-04-25T07:20:16;18.20;;;4.28;;
33714;SDS011;20043;50.998;4.754;2023-04-25T07:22:42;22.63;;;4.35;;
33714;SDS011;20043;50.998;4.754;2023-04-25T07:25:08;21.02;;;4.57;;
33714;SDS011;20043;50.998;4.754;2023-04-25T07:27:33;20.27;;;4.13;;
33714;SDS011;20043;50.998;4.754;2023-04-25T07:29:59;18.40;;;4.43;;
33714;SDS011;20043;50.998;4.754;2023-04-25T07:32:25;18.48;;;4.38;;
33714;SDS011;20043;50.998;4.754;2023-04-25T07:34:51;22.13;;;4.50;;
33714;SDS011;20043;50.998;4.754;2023-04-25T07:37:17;25.80;;;4.50;;
33714;SDS011;20043;50.998;4.754;2023-04-25T07:39:43;23.20;;;4.03;;
33714;SDS011;20043;50.998;4.754;2023-04-25T07:42:11;18.15;;;4.50;;
33714;SDS011;20043;50.998;4.754;2023-04-25T07:44:36;19.73;;;3.92;;
33714;SDS011;20043;50.998;4.754;2023-04-25T07:47:06;18.08;;;4.20;;
33714;SDS011;20043;50.998;4.754;2023-04-25T07:49:37;24.92;;;4.45;;
33714;SDS011;20043;50.998;4.754;2023-04-25T07:52:03;16.85;;;3.88;;
33714;SDS011;20043;50.998;4.754;2023-04-25T07:54:30;22.77;;;4.60;;
33714;SDS011;20043;50.998;4.754;2023-04-25T07:56:56;17.63;;;4.03;;
33714;SDS011;20043;50.998;4.754;2023-04-25T07:59:22;21.83;;;3.95;;
33714;SDS011;20043;50.998;4.754;2023-04-25T08:01:48;15.27;;;3.53;;
33714;SDS011;20043;50.998;4.754;2023-04-25T08:04:13;18.20;;;3.58;;
33714;SDS011;20043;50.998;4.754;2023-04-25T08:06:39;14.05;;;3.05;;
33714;SDS011;20043;50.998;4.754;2023-04-25T08:09:05;14.52;;;3.25;;
33714;SDS011;20043;50.998;4.754;2023-04-25T08:11:31;23.85;;;4.22;;
33714;SDS011;20043;50.998;4.754;2023-04-25T08:13:57;20.77;;;3.53;;
33714;SDS011;20043;50.998;4.754;2023-04-25T08:16:22;18.48;;;3.90;;
33714;SDS011;20043;50.998;4.754;2023-04-25T08:18:49;17.48;;;3.17;;
33714;SDS011;20043;50.998;4.754;2023-04-25T08:21:15;16.75;;;2.83;;
33714;SDS011;20043;50.998;4.754;2023-04-25T08:23:41;15.40;;;3.67;;
33714;SDS011;20043;50.998;4.754;2023-04-25T08:26:07;14.40;;;3.35;;
33714;SDS011;20043;50.998;4.754;2023-04-25T08:28:32;16.73;;;3.50;;
33714;SDS011;20043;50.998;4.754;2023-04-25T08:30:58;12.85;;;2.70;;
33714;SDS011;20043;50.998;4.754;2023-04-25T08:33:24;9.40;;;3.08;;
33714;SDS011;20043;50.998;4.754;2023-04-25T08:35:50;11.13;;;3.10;;
33714;SDS011;20043;50.998;4.754;2023-04-25T08:38:16;15.60;;;2.85;;
33714;SDS011;20043;50.998;4.754;2023-04-25T08:40:42;13.18;;;3.08;;
33714;SDS011;20043;50.998;4.754;2023-04-25T08:43:09;22.60;;;3.20;;
33714;SDS011;20043;50.998;4.754;2023-04-25T08:45:41;13.80;;;3.08;;
33714;SDS011;20043;50.998;4.754;2023-04-25T08:48:07;12.02;;;2.75;;
33714;SDS011;20043;50.998;4.754;2023-04-25T08:50:38;12.85;;;3.05;;
33714;SDS011;20043;50.998;4.754;2023-04-25T08:53:05;13.80;;;2.53;;
33714;SDS011;20043;50.998;4.754;2023-04-25T08:55:34;9.23;;;2.90;;
33714;SDS011;20043;50.998;4.754;2023-04-25T08:58:05;16.42;;;3.47;;
33714;SDS011;20043;50.998;4.754;2023-04-25T09:00:31;15.85;;;2.60;;
33714;SDS011;20043;50.998;4.754;2023-04-25T09:02:58;14.40;;;2.80;;
33714;SDS011;20043;50.998;4.754;2023-04-25T09:05:24;12.40;;;3.00;;
33714;SDS011;20043;50.998;4.754;2023-04-25T09:07:50;16.67;;;2.90;;
33714;SDS011;20043;50.998;4.754;2023-04-25T09:10:16;8.60;;;2.60;;
33714;SDS011;20043;50.998;4.754;2023-04-25T09:12:41;13.52;;;2.92;;
33714;SDS011;20043;50.998;4.754;2023-04-25T09:15:08;16.00;;;2.72;;
33714;SDS011;20043;50.998;4.754;2023-04-25T09:17:35;20.33;;;3.53;;
33714;SDS011;20043;50.998;4.754;2023-04-25T09:20:05;18.88;;;2.88;;
33714;SDS011;20043;50.998;4.754;2023-04-25T09:22:33;15.15;;;2.78;;
33714;SDS011;20043;50.998;4.754;2023-04-25T09:25:02;17.40;;;3.28;;
33714;SDS011;20043;50.998;4.754;2023-04-25T09:27:48;15.38;;;2.90;;
33714;SDS011;20043;50.998;4.754;2023-04-25T09:30:18;11.82;;;2.85;;
33714;SDS011;20043;50.998;4.754;2023-04-25T09:32:55;13.77;;;2.42;;
33714;SDS011;20043;50.998;4.754;2023-04-25T09:35:23;11.60;;;2.17;;
33714;SDS011;20043;50.998;4.754;2023-04-25T09:37:50;11.77;;;2.10;;
33714;SDS011;20043;50.998;4.754;2023-04-25T09:40:22;14.18;;;2.70;;
33714;SDS011;20043;50.998;4.754;2023-04-25T09:42:48;12.85;;;2.25;;
33714;SDS011;20043;50.998;4.754;2023-04-25T09:45:13;9.52;;;2.22;;
33714;SDS011;20043;50.998;4.754;2023-04-25T09:47:42;10.02;;;2.35;;
33714;SDS011;20043;50.998;4.754;2023-04-25T09:50:15;11.68;;;2.28;;
33714;SDS011;20043;50.998;4.754;2023-04-25T09:52:42;8.30;;;2.35;;
33714;SDS011;20043;50.998;4.754;2023-04-25T09:55:08;8.05;;;1.98;;
33714;SDS011;20043;50.998;4.754;2023-04-25T09:57:33;7.35;;;1.83;;
33714;SDS011;20043;50.998;4.754;2023-04-25T10:00:04;7.38;;;2.03;;
33714;SDS011;20043;50.998;4.754;2023-04-25T10:02:34;4.97;;;1.58;;
33714;SDS011;20043;50.998;4.754;2023-04-25T10:05:05;6.70;;;1.60;;
33714;SDS011;20043;50.998;4.754;2023-04-25T10:07:32;10.32;;;1.75;;
33714;SDS011;20043;50.998;4.754;2023-04-25T10:10:01;8.02;;;1.50;;
33714;SDS011;20043;50.998;4.754;2023-04-25T10:12:28;13.05;;;1.98;;
33714;SDS011;20043;50.998;4.754;2023-04-25T10:14:56;8.63;;;1.60;;
33714;SDS011;20043;50.998;4.754;2023-04-25T10:17:23;12.40;;;1.73;;
33714;SDS011;20043;50.998;4.754;2023-04-25T10:19:52;9.95;;;2.00;;
33714;SDS011;20043;50.998;4.754;2023-04-25T10:22:35;7.32;;;1.77;;
33714;SDS011;20043;50.998;4.754;2023-04-25T10:25:04;5.55;;;1.50;;
33714;SDS011;20043;50.998;4.754;2023-04-25T10:27:31;6.60;;;1.90;;
33714;SDS011;20043;50.998;4.754;2023-04-25T10:30:00;8.45;;;2.10;;
33714;SDS011;20043;50.998;4.754;2023-04-25T10:32:33;9.80;;;2.22;;
33714;SDS011;20043;50.998;4.754;2023-04-25T10:35:17;6.93;;;1.75;;
33714;SDS011;20043;50.998;4.754;2023-04-25T10:40:35;6.57;;;1.83;;
33714;SDS011;20043;50.998;4.754;2023-04-25T10:45:59;4.53;;;1.55;;
33714;SDS011;20043;50.998;4.754;2023-04-25T10:48:26;8.93;;;1.80;;
33714;SDS011;20043;50.998;4.754;2023-04-25T10:51:08;8.20;;;2.03;;
33714;SDS011;20043;50.998;4.754;2023-04-25T10:53:34;9.48;;;1.92;;
33714;SDS011;20043;50.998;4.754;2023-04-25T10:56:00;7.18;;;1.98;;
33714;SDS011;20043;50.998;4.754;2023-04-25T10:58:34;7.55;;;1.73;;
33714;SDS011;20043;50.998;4.754;2023-04-25T11:01:00;5.53;;;1.85;;
33714;SDS011;20043;50.998;4.754;2023-04-25T11:03:26;9.93;;;2.08;;
33714;SDS011;20043;50.998;4.754;2023-04-25T11:05:52;8.98;;;2.13;;
33714;SDS011;20043;50.998;4.754;2023-04-25T11:08:20;9.02;;;1.90;;
33714;SDS011;20043;50.998;4.754;2023-04-25T11:11:00;8.57;;;1.95;;
33714;SDS011;20043;50.998;4.754;2023-04-25T11:13:30;6.63;;;2.08;;
33714;SDS011;20043;50.998;4.754;2023-04-25T11:15:55;7.15;;;2.05;;
33714;SDS011;20043;50.998;4.754;2023-04-25T11:18:21;6.38;;;2.05;;
33714;SDS011;20043;50.998;4.754;2023-04-25T11:20:50;6.05;;;2.00;;
33714;SDS011;20043;50.998;4.754;2023-04-25T11:23:16;7.85;;;2.10;;
33714;SDS011;20043;50.998;4.754;2023-04-25T11:25:42;8.70;;;2.00;;
33714;SDS011;20043;50.998;4.754;2023-04-25T11:28:07;9.65;;;1.90;;
33714;SDS011;20043;50.998;4.754;2023-04-25T11:30:33;10.98;;;2.17;;
33714;SDS011;20043;50.998;4.754;2023-04-25T11:32:58;7.45;;;1.90;;
33714;SDS011;20043;50.998;4.754;2023-04-25T11:35:24;9.23;;;1.95;;
33714;SDS011;20043;50.998;4.754;2023-04-25T11:37:50;8.93;;;1.85;;
33714;SDS011;20043;50.998;4.754;2023-04-25T11:40:16;10.20;;;2.30;;
33714;SDS011;20043;50.998;4.754;2023-04-25T11:42:45;11.43;;;2.47;;
33714;SDS011;20043;50.998;4.754;2023-04-25T11:45:12;12.18;;;1.83;;
33714;SDS011;20043;50.998;4.754;2023-04-25T11:47:38;11.73;;;2.13;;
33714;SDS011;20043;50.998;4.754;2023-04-25T11:50:04;8.27;;;1.50;;
33714;SDS011;20043;50.998;4.754;2023-04-25T11:53:05;8.57;;;1.92;;
33714;SDS011;20043;50.998;4.754;2023-04-25T11:55:24;9.77;;;1.75;;
33714;SDS011;20043;50.998;4.754;2023-04-25T11:57:50;12.75;;;2.00;;
33714;SDS011;20043;50.998;4.754;2023-04-25T12:00:16;10.02;;;1.80;;
33714;SDS011;20043;50.998;4.754;2023-04-25T12:02:54;9.73;;;1.90;;
33714;SDS011;20043;50.998;4.754;2023-04-25T12:05:27;8.27;;;2.00;;
33714;SDS011;20043;50.998;4.754;2023-04-25T12:07:56;10.57;;;2.17;;
33714;SDS011;20043;50.998;4.754;2023-04-25T12:10:23;11.52;;;2.10;;
33714;SDS011;20043;50.998;4.754;2023-04-25T12:12:50;6.00;;;1.55;;
33714;SDS011;20043;50.998;4.754;2023-04-25T12:15:17;10.32;;;2.17;;
33714;SDS011;20043;50.998;4.754;2023-04-25T12:17:46;8.30;;;1.58;;
33714;SDS011;20043;50.998;4.754;2023-04-25T12:20:14;12.63;;;2.20;;
33714;SDS011;20043;50.998;4.754;2023-04-25T12:22:41;6.72;;;1.70;;
33714;SDS011;20043;50.998;4.754;2023-04-25T12:25:10;6.38;;;1.52;;
33714;SDS011;20043;50.998;4.754;2023-04-25T12:27:37;7.07;;;1.90;;
33714;SDS011;20043;50.998;4.754;2023-04-25T12:30:05;7.05;;;1.52;;
33714;SDS011;20043;50.998;4.754;2023-04-25T12:32:32;6.15;;;1.52;;
33714;SDS011;20043;50.998;4.754;2023-04-25T12:34:57;7.53;;;1.67;;
33714;SDS011;20043;50.998;4.754;2023-04-25T12:37:23;3.42;;;1.13;;
33714;SDS011;20043;50.998;4.754;2023-04-25T12:39:48;12.40;;;1.60;;
33714;SDS011;20043;50.998;4.754;2023-04-25T12:42:14;8.60;;;1.63;;
33714;SDS011;20043;50.998;4.754;2023-04-25T12:44:40;4.25;;;1.23;;
33714;SDS011;20043;50.998;4.754;2023-04-25T12:47:06;7.70;;;1.60;;
33714;SDS011;20043;50.998;4.754;2023-04-25T12:49:31;3.85;;;1.65;;
33714;SDS011;20043;50.998;4.754;2023-04-25T12:51:57;7.30;;;1.50;;
33714;SDS011;20043;50.998;4.754;2023-04-25T12:54:23;6.90;;;1.45;;
33714;SDS011;20043;50.998;4.754;2023-04-25T12:56:49;3.00;;;1.08;;
33714;SDS011;20043;50.998;4.754;2023-04-25T12:59:15;6.43;;;1.65;;
33714;SDS011;20043;50.998;4.754;2023-04-25T13:01:41;10.38;;;1.75;;
33714;SDS011;20043;50.998;4.754;2023-04-25T13:04:06;9.77;;;1.42;;
33714;SDS011;20043;50.998;4.754;2023-04-25T13:06:32;4.60;;;1.38;;
33714;SDS011;20043;50.998;4.754;2023-04-25T13:08:58;6.50;;;1.35;;
33714;SDS011;20043;50.998;4.754;2023-04-25T13:11:23;5.32;;;1.40;;
33714;SDS011;20043;50.998;4.754;2023-04-25T13:13:49;3.97;;;1.27;;
33714;SDS011;20043;50.998;4.754;2023-04-25T13:16:15;9.18;;;1.50;;
33714;SDS011;20043;50.998;4.754;2023-04-25T13:18:40;4.97;;;1.40;;
33714;SDS011;20043;50.998;4.754;2023-04-25T13:21:06;6.28;;;1.30;;
33714;SDS011;20043;50.998;4.754;2023-04-25T13:23:32;4.25;;;1.00;;
33714;SDS011;20043;50.998;4.754;2023-04-25T13:25:57;4.75;;;1.35;;
33714;SDS011;20043;50.998;4.754;2023-04-25T13:28:23;6.20;;;1.30;;
33714;SDS011;20043;50.998;4.754;2023-04-25T13:30:50;7.45;;;1.70;;
33714;SDS011;20043;50.998;4.754;2023-04-25T13:33:16;7.45;;;1.60;;
33714;SDS011;20043;50.998;4.754;2023-04-25T13:35:42;7.63;;;1.67;;
33714;SDS011;20043;50.998;4.754;2023-04-25T13:38:11;5.57;;;1.42;;
33714;SDS011;20043;50.998;4.754;2023-04-25T13:40:37;6.38;;;1.52;;
33714;SDS011;20043;50.998;4.754;2023-04-25T13:43:03;4.88;;;1.65;;
33714;SDS011;20043;50.998;4.754;2023-04-25T13:45:29;8.73;;;1.70;;
33714;SDS011;20043;50.998;4.754;2023-04-25T13:47:55;9.10;;;1.83;;
33714;SDS011;20043;50.998;4.754;2023-04-25T13:50:20;6.13;;;1.42;;
33714;SDS011;20043;50.998;4.754;2023-04-25T13:52:46;5.05;;;1.42;;
33714;SDS011;20043;50.998;4.754;2023-04-25T13:55:12;5.55;;;1.42;;
33714;SDS011;20043;50.998;4.754;2023-04-25T13:57:38;3.72;;;1.38;;
33714;SDS011;20043;50.998;4.754;2023-04-25T14:00:04;6.13;;;1.70;;
33714;SDS011;20043;50.998;4.754;2023-04-25T14:02:39;5.43;;;1.65;;
33714;SDS011;20043;50.998;4.754;2023-04-25T14:05:05;5.85;;;1.25;;
33714;SDS011;20043;50.998;4.754;2023-04-25T14:07:32;8.82;;;1.88;;
33714;SDS011;20043;50.998;4.754;2023-04-25T14:09:59;11.30;;;1.55;;
33714;SDS011;20043;50.998;4.754;2023-04-25T14:12:26;7.13;;;1.27;;
33714;SDS011;20043;50.998;4.754;2023-04-25T14:14:59;8.90;;;1.90;;
33714;SDS011;20043;50.998;4.754;2023-04-25T14:17:25;7.13;;;1.42;;
33714;SDS011;20043;50.998;4.754;2023-04-25T14:19:51;6.28;;;1.40;;
33714;SDS011;20043;50.998;4.754;2023-04-25T14:22:23;5.70;;;1.55;;
33714;SDS011;20043;50.998;4.754;2023-04-25T14:24:55;8.20;;;1.27;;
33714;SDS011;20043;50.998;4.754;2023-04-25T14:27:21;5.40;;;1.52;;
33714;SDS011;20043;50.998;4.754;2023-04-25T14:29:47;6.57;;;1.30;;
33714;SDS011;20043;50.998;4.754;2023-04-25T14:32:12;8.85;;;1.80;;
33714;SDS011;20043;50.998;4.754;2023-04-25T14:34:38;6.75;;;1.25;;
33714;SDS011;20043;50.998;4.754;2023-04-25T14:37:03;7.60;;;1.83;;
33714;SDS011;20043;50.998;4.754;2023-04-25T14:39:29;7.35;;;1.20;;
33714;SDS011;20043;50.998;4.754;2023-04-25T14:41:55;10.65;;;1.55;;